Portada
METAR-TAF:

METAR-TAF

Aeroports :

Hagåtña, Guam, Estats Units d'Amèrica

latitud: 13-29N, longitud: 144-48E, altitud: 91 m

Observació

L'informe es va fer fa 40 minuts, a les 00:54 UTC
Vent 12 kt del Est
Temperatura 31°C
Humitat 66%
Pressió 1013 hPa
Visibilitat: 16.1 km
Cel ennuvolat a una alçada de 2300 ft
Cel ennuvolat a una alçada de 2900 ft

METAR: PGUM 160054Z 08012KT 10SM BKN023 BKN029 31/24 A2991 RMK AO2 SLP121 T03060244 $

Hora: 11:34 (01:34 UTC)

Pronòstic

L'informe es va fer fa 1 hora i 52 minuts, a les 23:42 UTC
Pronòstic vàlid del 16 a les 00 UTC al 17 a les 06 UTC
Vent 13 kt del Est
Visibilitat: 10 km
Núvols disperses a una alçada de 2000 ft
Núvols disperses a una alçada de 5000 ft
A partir de les 16 a les 0900 UTC
Vent 8 kt del Est
Visibilitat: 10 km
Escasses núvols a una alçada de 2000 ft
Núvols disperses a una alçada de 5000 ft
xàfecs en les proximitats

TAF: PGUM 152342Z 1600/1706 09013KT P6SM SCT020 SCT050 FM160900 08008KT P6SM VCSH FEW020 SCT050

Observacions i pronòstics meteorològics de més de 4000 aeroports (METAR i TAF).

Les estacions disponibles són els punts grocs i vermells al mapa.

Posi el ratolí al punt desitjat per veure el nom de l'estació.

Feu clic per veure les observacions i els pronòstics meteorològics.

Per canviar el mapa: feu clic els botons verds amb una creu de color negre per apropar; al botó verd amb un guió per allunyar la imatge; o en les fletxes verdes per a mapes adjacents.


METAR-TAF: